Jeremiah, KY (41826)

11:45 PM EDT on July 29, 2016 (GMT -0400)
St. Charles, Virginia | | Change Station

Elev 1778 ft 36.83 °N, 83.03 °W | Updated 3 minutes ago

Scattered Clouds
Scattered Clouds
62.0 °F
Feels Like 62.0 °F
N
0.0
Wind Variable Wind from SSE
Gusts 0.0 mph

Today
High -- | Low -- °F
--% Chance of Precip.
Yesterday
High -- | Low -- °F
Precip. -- in
Pressure 30.09 in
Visibility 5.0 miles
Clouds Scattered Clouds 100 ft
Dew Point 56 °F
Humidity 82%
Rainfall 0.30 in
Snow Depth Not available.
6:34 AM 8:41 PM
Waning Crescent, 16% visible
METAR KLNP 300335Z AUTO 20005KT 5SM BR SCT001 18/18 A3009 RMK AO2
Pressure 30.09 in
Visibility 5.0 miles
Clouds Scattered Clouds 100 ft
Dew Point 56 °F
Humidity 82%
Rainfall 0.30 in
Snow Depth Not available.
6:34 AM 8:41 PM
Waning Crescent, 16% visible
METAR KLNP 300335Z AUTO 20005KT 5SM BR SCT001 18/18 A3009 RMK AO2

10-Day Weather Forecast

Almanac

Astronomy

Jul. 29, 2016 Rise Set
Actual Time
Civil Twilight
Nautical Twilight
Astronomical Twilight
Moon
Length of Visible Light
Length of Day
Tomorrow will be .
, % of the Moon is Illuminated

Today's Extremes

State Highs State Lows

Community

WunderPhotos

Upload Photos

1,928,500 photos uploaded!

WunderBlog® & News

Nearby

Air Quality

  Air Quality AQ Index Pollutant
Not available.

Snow Depth

Station Depth Elevation

Earthquake Activity

City Distance Mag. Time & Date
Minimum magnitude displayed is 2.5.

Coastal Water Temperatures

Place Temperature

Stations

Nearby Weather Stations

Station Location Temp. Windchill Dew Point Humidity Wind Precip. Elev Updated Type
                   

Watches & Warnings

There are currently no watches in effect.